Azle, Texas
Current Conditions -  °F | °C
As of 12:52 AM on Monday 22 Dec 2014 (Local Time) from KNFW Reporting Station
Overcast Overcast  
Wind Chill: 13°   Ceiling: 1300
Heat Index: 13°   Visibility: 10mi
Dew Point:   Wind: 16mph
Humidity: 72%   Direction: 180°S
Pressure: 29.72"   Gusts: 25mph
Location:  32.88°N, 97.54°W
Report Text: KNFW 220652Z AUTO 18014G22KT 10SM OVC013 13/08 A2972 RMK AO2 SLP049 T01280078
Loading
Personal Weather Stations






























Interactive Weather Map New forecast layout! Learn more

10-Day Weather Forecast

Advertisements
Track Severe Weather on mobile